sensor_id;sensor_type;location;lat;lon;timestamp;P1;durP1;ratioP1;P2;durP2;ratioP2
47896;SDS011;39629;51.400;5.494;2023-02-18T00:03:49;15.38;;;7.70;;
47896;SDS011;39629;51.400;5.494;2023-02-18T00:08:52;14.98;;;7.85;;
47896;SDS011;39629;51.400;5.494;2023-02-18T00:13:55;16.73;;;8.55;;
47896;SDS011;39629;51.400;5.494;2023-02-18T00:18:58;13.02;;;7.38;;
47896;SDS011;39629;51.400;5.494;2023-02-18T00:24:04;15.35;;;8.18;;
47896;SDS011;39629;51.400;5.494;2023-02-18T00:29:06;14.43;;;7.82;;
47896;SDS011;39629;51.400;5.494;2023-02-18T00:34:08;14.50;;;7.60;;
47896;SDS011;39629;51.400;5.494;2023-02-18T00:39:12;16.23;;;8.18;;
47896;SDS011;39629;51.400;5.494;2023-02-18T00:44:14;15.57;;;7.85;;
47896;SDS011;39629;51.400;5.494;2023-02-18T00:49:15;15.35;;;7.60;;
47896;SDS011;39629;51.400;5.494;2023-02-18T00:54:18;17.20;;;7.78;;
47896;SDS011;39629;51.400;5.494;2023-02-18T00:59:20;14.13;;;7.05;;
47896;SDS011;39629;51.400;5.494;2023-02-18T01:04:22;15.38;;;7.45;;
47896;SDS011;39629;51.400;5.494;2023-02-18T01:09:25;12.20;;;6.55;;
47896;SDS011;39629;51.400;5.494;2023-02-18T01:14:26;12.98;;;6.40;;
47896;SDS011;39629;51.400;5.494;2023-02-18T01:19:28;9.32;;;4.97;;
47896;SDS011;39629;51.400;5.494;2023-02-18T01:24:31;10.52;;;5.90;;
47896;SDS011;39629;51.400;5.494;2023-02-18T01:29:33;11.48;;;6.07;;
47896;SDS011;39629;51.400;5.494;2023-02-18T01:34:36;10.52;;;5.55;;
47896;SDS011;39629;51.400;5.494;2023-02-18T01:39:38;10.50;;;6.07;;
47896;SDS011;39629;51.400;5.494;2023-02-18T01:44:40;11.05;;;6.05;;
47896;SDS011;39629;51.400;5.494;2023-02-18T01:49:46;13.15;;;6.68;;
47896;SDS011;39629;51.400;5.494;2023-02-18T01:54:54;11.25;;;6.13;;
47896;SDS011;39629;51.400;5.494;2023-02-18T01:59:57;15.73;;;7.25;;
47896;SDS011;39629;51.400;5.494;2023-02-18T02:05:04;13.32;;;7.25;;
47896;SDS011;39629;51.400;5.494;2023-02-18T02:10:08;14.50;;;7.82;;
47896;SDS011;39629;51.400;5.494;2023-02-18T02:15:15;13.70;;;7.28;;
47896;SDS011;39629;51.400;5.494;2023-02-18T02:20:35;12.23;;;6.95;;
47896;SDS011;39629;51.400;5.494;2023-02-18T02:26:21;12.27;;;6.70;;
47896;SDS011;39629;51.400;5.494;2023-02-18T02:31:49;11.40;;;6.53;;
47896;SDS011;39629;51.400;5.494;2023-02-18T02:37:06;11.30;;;6.28;;
47896;SDS011;39629;51.400;5.494;2023-02-18T02:42:16;10.77;;;6.00;;
47896;SDS011;39629;51.400;5.494;2023-02-18T02:47:26;10.90;;;5.90;;
47896;SDS011;39629;51.400;5.494;2023-02-18T02:52:36;10.38;;;5.43;;
47896;SDS011;39629;51.400;5.494;2023-02-18T02:57:43;10.95;;;6.05;;
47896;SDS011;39629;51.400;5.494;2023-02-18T03:02:57;10.60;;;5.78;;
47896;SDS011;39629;51.400;5.494;2023-02-18T03:08:36;11.65;;;5.40;;
47896;SDS011;39629;51.400;5.494;2023-02-18T03:13:50;11.00;;;5.28;;
47896;SDS011;39629;51.400;5.494;2023-02-18T03:19:04;10.25;;;4.90;;
47896;SDS011;39629;51.400;5.494;2023-02-18T03:24:13;9.75;;;4.68;;
47896;SDS011;39629;51.400;5.494;2023-02-18T03:29:18;7.82;;;3.75;;
47896;SDS011;39629;51.400;5.494;2023-02-18T03:34:24;6.93;;;3.03;;
47896;SDS011;39629;51.400;5.494;2023-02-18T03:39:31;6.68;;;3.30;;
47896;SDS011;39629;51.400;5.494;2023-02-18T03:44:35;6.03;;;2.90;;
47896;SDS011;39629;51.400;5.494;2023-02-18T03:49:36;5.82;;;2.60;;
47896;SDS011;39629;51.400;5.494;2023-02-18T03:54:39;3.47;;;2.08;;
47896;SDS011;39629;51.400;5.494;2023-02-18T03:59:42;4.63;;;2.08;;
47896;SDS011;39629;51.400;5.494;2023-02-18T04:04:43;4.38;;;1.90;;
47896;SDS011;39629;51.400;5.494;2023-02-18T04:09:46;3.65;;;1.52;;
47896;SDS011;39629;51.400;5.494;2023-02-18T04:14:48;2.47;;;1.40;;
47896;SDS011;39629;51.400;5.494;2023-02-18T04:24:55;2.17;;;1.15;;
47896;SDS011;39629;51.400;5.494;2023-02-18T04:29:56;2.45;;;1.10;;
47896;SDS011;39629;51.400;5.494;2023-02-18T04:34:58;3.85;;;1.02;;
47896;SDS011;39629;51.400;5.494;2023-02-18T04:40:01;1.98;;;1.00;;
47896;SDS011;39629;51.400;5.494;2023-02-18T04:45:03;1.80;;;0.88;;
47896;SDS011;39629;51.400;5.494;2023-02-18T04:50:06;2.00;;;1.10;;
47896;SDS011;39629;51.400;5.494;2023-02-18T04:55:09;1.70;;;1.02;;
47896;SDS011;39629;51.400;5.494;2023-02-18T05:00:12;2.13;;;1.15;;
47896;SDS011;39629;51.400;5.494;2023-02-18T05:05:16;2.22;;;0.95;;
47896;SDS011;39629;51.400;5.494;2023-02-18T05:10:19;2.00;;;1.00;;
47896;SDS011;39629;51.400;5.494;2023-02-18T05:15:21;1.48;;;0.85;;
47896;SDS011;39629;51.400;5.494;2023-02-18T05:20:22;1.85;;;0.90;;
47896;SDS011;39629;51.400;5.494;2023-02-18T05:25:26;2.08;;;1.00;;
47896;SDS011;39629;51.400;5.494;2023-02-18T05:30:27;1.40;;;0.80;;
47896;SDS011;39629;51.400;5.494;2023-02-18T05:35:29;2.33;;;0.90;;
47896;SDS011;39629;51.400;5.494;2023-02-18T05:40:32;1.40;;;0.80;;
47896;SDS011;39629;51.400;5.494;2023-02-18T05:45:33;3.03;;;1.02;;
47896;SDS011;39629;51.400;5.494;2023-02-18T05:50:35;1.45;;;0.85;;
47896;SDS011;39629;51.400;5.494;2023-02-18T05:55:38;1.70;;;1.00;;
47896;SDS011;39629;51.400;5.494;2023-02-18T06:00:40;1.92;;;1.02;;
47896;SDS011;39629;51.400;5.494;2023-02-18T06:05:42;1.83;;;1.00;;
47896;SDS011;39629;51.400;5.494;2023-02-18T06:10:45;2.20;;;1.23;;
47896;SDS011;39629;51.400;5.494;2023-02-18T06:15:48;2.50;;;1.35;;
47896;SDS011;39629;51.400;5.494;2023-02-18T06:20:50;2.90;;;1.53;;
47896;SDS011;39629;51.400;5.494;2023-02-18T06:25:53;2.63;;;1.70;;
47896;SDS011;39629;51.400;5.494;2023-02-18T06:30:55;3.85;;;1.23;;
47896;SDS011;39629;51.400;5.494;2023-02-18T06:35:57;2.22;;;1.23;;
47896;SDS011;39629;51.400;5.494;2023-02-18T06:41:01;1.90;;;0.90;;
47896;SDS011;39629;51.400;5.494;2023-02-18T06:46:03;3.25;;;1.27;;
47896;SDS011;39629;51.400;5.494;2023-02-18T06:51:05;3.28;;;1.60;;
47896;SDS011;39629;51.400;5.494;2023-02-18T06:56:08;2.50;;;1.33;;
47896;SDS011;39629;51.400;5.494;2023-02-18T07:01:09;3.17;;;1.60;;
47896;SDS011;39629;51.400;5.494;2023-02-18T07:06:11;1.98;;;1.00;;
47896;SDS011;39629;51.400;5.494;2023-02-18T07:11:14;2.55;;;1.20;;
47896;SDS011;39629;51.400;5.494;2023-02-18T07:16:15;4.03;;;1.30;;
47896;SDS011;39629;51.400;5.494;2023-02-18T07:21:17;3.60;;;1.52;;
47896;SDS011;39629;51.400;5.494;2023-02-18T07:26:20;5.15;;;1.52;;
47896;SDS011;39629;51.400;5.494;2023-02-18T07:31:22;7.72;;;1.55;;
47896;SDS011;39629;51.400;5.494;2023-02-18T07:36:23;6.90;;;1.38;;
47896;SDS011;39629;51.400;5.494;2023-02-18T07:41:26;5.82;;;1.35;;
47896;SDS011;39629;51.400;5.494;2023-02-18T07:46:28;6.82;;;1.27;;
47896;SDS011;39629;51.400;5.494;2023-02-18T07:51:29;10.07;;;1.50;;
47896;SDS011;39629;51.400;5.494;2023-02-18T07:56:32;6.38;;;1.80;;
47896;SDS011;39629;51.400;5.494;2023-02-18T08:01:34;8.68;;;1.75;;
47896;SDS011;39629;51.400;5.494;2023-02-18T08:06:36;6.82;;;2.05;;
47896;SDS011;39629;51.400;5.494;2023-02-18T08:11:41;4.03;;;1.55;;
47896;SDS011;39629;51.400;5.494;2023-02-18T08:16:42;8.50;;;1.63;;
47896;SDS011;39629;51.400;5.494;2023-02-18T08:21:44;5.82;;;1.60;;
47896;SDS011;39629;51.400;5.494;2023-02-18T08:26:47;10.23;;;2.20;;
47896;SDS011;39629;51.400;5.494;2023-02-18T08:31:49;7.53;;;1.63;;
47896;SDS011;39629;51.400;5.494;2023-02-18T08:36:51;7.50;;;1.40;;
47896;SDS011;39629;51.400;5.494;2023-02-18T08:41:54;9.65;;;1.80;;
47896;SDS011;39629;51.400;5.494;2023-02-18T08:46:57;5.53;;;1.80;;
47896;SDS011;39629;51.400;5.494;2023-02-18T08:51:58;5.22;;;1.40;;
47896;SDS011;39629;51.400;5.494;2023-02-18T08:57:01;5.53;;;1.55;;
47896;SDS011;39629;51.400;5.494;2023-02-18T09:02:03;5.97;;;1.80;;
47896;SDS011;39629;51.400;5.494;2023-02-18T09:07:04;9.38;;;1.50;;
47896;SDS011;39629;51.400;5.494;2023-02-18T09:12:07;5.13;;;1.73;;
47896;SDS011;39629;51.400;5.494;2023-02-18T09:17:09;5.88;;;1.52;;
47896;SDS011;39629;51.400;5.494;2023-02-18T09:22:11;8.35;;;1.38;;
47896;SDS011;39629;51.400;5.494;2023-02-18T09:27:14;7.07;;;1.60;;
47896;SDS011;39629;51.400;5.494;2023-02-18T09:32:16;4.72;;;1.17;;
47896;SDS011;39629;51.400;5.494;2023-02-18T09:37:18;5.47;;;1.60;;
47896;SDS011;39629;51.400;5.494;2023-02-18T09:42:21;7.05;;;1.58;;
47896;SDS011;39629;51.400;5.494;2023-02-18T09:47:30;5.03;;;1.45;;
47896;SDS011;39629;51.400;5.494;2023-02-18T09:52:35;7.43;;;1.63;;
47896;SDS011;39629;51.400;5.494;2023-02-18T09:57:40;7.00;;;1.40;;
47896;SDS011;39629;51.400;5.494;2023-02-18T10:02:52;8.93;;;2.10;;
47896;SDS011;39629;51.400;5.494;2023-02-18T10:07:57;4.80;;;1.30;;
47896;SDS011;39629;51.400;5.494;2023-02-18T10:13:04;7.45;;;1.60;;
47896;SDS011;39629;51.400;5.494;2023-02-18T10:18:15;5.45;;;1.40;;
47896;SDS011;39629;51.400;5.494;2023-02-18T10:23:21;5.03;;;1.48;;
47896;SDS011;39629;51.400;5.494;2023-02-18T10:28:26;8.15;;;1.23;;
47896;SDS011;39629;51.400;5.494;2023-02-18T10:33:32;5.75;;;1.70;;
47896;SDS011;39629;51.400;5.494;2023-02-18T10:38:36;5.28;;;1.60;;
47896;SDS011;39629;51.400;5.494;2023-02-18T10:43:48;5.78;;;1.60;;
47896;SDS011;39629;51.400;5.494;2023-02-18T10:49:03;4.88;;;1.85;;
47896;SDS011;39629;51.400;5.494;2023-02-18T10:54:10;9.05;;;2.17;;
47896;SDS011;39629;51.400;5.494;2023-02-18T11:04:22;10.32;;;2.60;;
47896;SDS011;39629;51.400;5.494;2023-02-18T11:09:29;8.80;;;2.80;;
47896;SDS011;39629;51.400;5.494;2023-02-18T11:14:41;7.95;;;3.13;;
47896;SDS011;39629;51.400;5.494;2023-02-18T11:19:50;7.30;;;2.80;;
47896;SDS011;39629;51.400;5.494;2023-02-18T11:24:55;10.70;;;3.72;;
47896;SDS011;39629;51.400;5.494;2023-02-18T11:30:00;12.27;;;4.37;;
47896;SDS011;39629;51.400;5.494;2023-02-18T11:35:04;13.52;;;5.53;;
47896;SDS011;39629;51.400;5.494;2023-02-18T11:40:06;10.00;;;5.13;;
47896;SDS011;39629;51.400;5.494;2023-02-18T11:45:28;11.55;;;5.28;;
47896;SDS011;39629;51.400;5.494;2023-02-18T11:50:32;11.43;;;5.40;;
47896;SDS011;39629;51.400;5.494;2023-02-18T11:55:35;10.60;;;5.07;;
47896;SDS011;39629;51.400;5.494;2023-02-18T12:00:39;12.95;;;6.32;;
47896;SDS011;39629;51.400;5.494;2023-02-18T12:05:43;12.30;;;5.60;;
47896;SDS011;39629;51.400;5.494;2023-02-18T12:10:46;12.25;;;5.07;;
47896;SDS011;39629;51.400;5.494;2023-02-18T12:15:53;10.82;;;4.60;;
47896;SDS011;39629;51.400;5.494;2023-02-18T12:21:06;8.75;;;3.80;;
47896;SDS011;39629;51.400;5.494;2023-02-18T12:26:18;9.07;;;4.32;;
47896;SDS011;39629;51.400;5.494;2023-02-18T12:31:30;10.52;;;4.43;;
47896;SDS011;39629;51.400;5.494;2023-02-18T12:36:45;7.57;;;3.45;;
47896;SDS011;39629;51.400;5.494;2023-02-18T12:41:59;7.93;;;3.75;;
47896;SDS011;39629;51.400;5.494;2023-02-18T12:47:32;5.50;;;2.85;;
47896;SDS011;39629;51.400;5.494;2023-02-18T12:52:46;5.85;;;2.90;;
47896;SDS011;39629;51.400;5.494;2023-02-18T12:57:57;12.55;;;3.70;;
47896;SDS011;39629;51.400;5.494;2023-02-18T13:03:33;11.95;;;3.90;;
47896;SDS011;39629;51.400;5.494;2023-02-18T13:08:53;6.82;;;3.28;;
47896;SDS011;39629;51.400;5.494;2023-02-18T13:14:06;12.80;;;3.53;;
47896;SDS011;39629;51.400;5.494;2023-02-18T13:19:15;7.72;;;3.38;;
47896;SDS011;39629;51.400;5.494;2023-02-18T13:24:24;6.53;;;2.80;;
47896;SDS011;39629;51.400;5.494;2023-02-18T13:29:31;7.15;;;3.28;;
47896;SDS011;39629;51.400;5.494;2023-02-18T13:34:41;7.53;;;3.47;;
47896;SDS011;39629;51.400;5.494;2023-02-18T13:39:47;8.02;;;3.90;;
47896;SDS011;39629;51.400;5.494;2023-02-18T13:45:03;9.38;;;3.70;;
47896;SDS011;39629;51.400;5.494;2023-02-18T13:50:31;7.95;;;3.40;;
47896;SDS011;39629;51.400;5.494;2023-02-18T13:55:45;10.13;;;3.95;;
47896;SDS011;39629;51.400;5.494;2023-02-18T14:00:55;8.68;;;4.40;;
47896;SDS011;39629;51.400;5.494;2023-02-18T14:06:13;10.73;;;7.30;;
47896;SDS011;39629;51.400;5.494;2023-02-18T14:11:23;12.57;;;7.93;;
47896;SDS011;39629;51.400;5.494;2023-02-18T14:22:42;13.13;;;6.93;;
47896;SDS011;39629;51.400;5.494;2023-02-18T14:27:45;12.15;;;6.28;;
47896;SDS011;39629;51.400;5.494;2023-02-18T14:32:50;11.93;;;6.55;;
47896;SDS011;39629;51.400;5.494;2023-02-18T14:38:08;10.80;;;6.82;;
47896;SDS011;39629;51.400;5.494;2023-02-18T14:43:25;11.88;;;6.90;;
47896;SDS011;39629;51.400;5.494;2023-02-18T14:48:41;13.68;;;6.57;;
47896;SDS011;39629;51.400;5.494;2023-02-18T14:53:51;13.52;;;6.47;;
47896;SDS011;39629;51.400;5.494;2023-02-18T14:58:54;9.57;;;5.68;;
47896;SDS011;39629;51.400;5.494;2023-02-18T15:04:00;13.80;;;6.32;;
47896;SDS011;39629;51.400;5.494;2023-02-18T15:09:11;12.93;;;6.25;;
47896;SDS011;39629;51.400;5.494;2023-02-18T15:14:15;12.48;;;6.13;;
47896;SDS011;39629;51.400;5.494;2023-02-18T15:24:25;10.80;;;5.45;;
47896;SDS011;39629;51.400;5.494;2023-02-18T15:29:32;12.50;;;5.50;;
47896;SDS011;39629;51.400;5.494;2023-02-18T15:34:35;10.98;;;4.85;;
47896;SDS011;39629;51.400;5.494;2023-02-18T15:39:40;12.00;;;5.28;;
47896;SDS011;39629;51.400;5.494;2023-02-18T15:44:44;13.68;;;5.25;;
47896;SDS011;39629;51.400;5.494;2023-02-18T15:49:50;12.90;;;5.53;;
47896;SDS011;39629;51.400;5.494;2023-02-18T15:54:55;10.73;;;5.22;;
47896;SDS011;39629;51.400;5.494;2023-02-18T16:00:02;11.48;;;5.70;;
47896;SDS011;39629;51.400;5.494;2023-02-18T16:05:13;9.93;;;5.00;;
47896;SDS011;39629;51.400;5.494;2023-02-18T16:10:19;12.73;;;4.97;;
47896;SDS011;39629;51.400;5.494;2023-02-18T16:15:24;13.32;;;5.45;;
47896;SDS011;39629;51.400;5.494;2023-02-18T16:20:29;10.47;;;5.53;;
47896;SDS011;39629;51.400;5.494;2023-02-18T16:25:38;11.45;;;5.90;;
47896;SDS011;39629;51.400;5.494;2023-02-18T16:30:43;11.85;;;5.75;;
47896;SDS011;39629;51.400;5.494;2023-02-18T16:35:45;12.85;;;5.65;;
47896;SDS011;39629;51.400;5.494;2023-02-18T16:40:49;10.70;;;5.50;;
47896;SDS011;39629;51.400;5.494;2023-02-18T16:45:52;12.40;;;5.20;;
47896;SDS011;39629;51.400;5.494;2023-02-18T16:50:58;10.80;;;4.70;;
47896;SDS011;39629;51.400;5.494;2023-02-18T16:56:04;9.15;;;4.85;;
47896;SDS011;39629;51.400;5.494;2023-02-18T17:01:07;9.75;;;4.43;;
47896;SDS011;39629;51.400;5.494;2023-02-18T17:06:21;7.05;;;4.22;;
47896;SDS011;39629;51.400;5.494;2023-02-18T17:11:25;10.13;;;5.40;;
47896;SDS011;39629;51.400;5.494;2023-02-18T17:16:29;10.98;;;5.30;;
47896;SDS011;39629;51.400;5.494;2023-02-18T17:21:31;11.77;;;5.55;;
47896;SDS011;39629;51.400;5.494;2023-02-18T17:26:34;10.30;;;5.28;;
47896;SDS011;39629;51.400;5.494;2023-02-18T17:31:36;10.52;;;4.82;;
47896;SDS011;39629;51.400;5.494;2023-02-18T17:36:40;7.30;;;4.13;;
47896;SDS011;39629;51.400;5.494;2023-02-18T17:41:45;13.18;;;5.57;;
47896;SDS011;39629;51.400;5.494;2023-02-18T17:46:47;9.23;;;4.97;;
47896;SDS011;39629;51.400;5.494;2023-02-18T17:51:50;13.90;;;5.28;;
47896;SDS011;39629;51.400;5.494;2023-02-18T17:56:53;11.70;;;5.28;;
47896;SDS011;39629;51.400;5.494;2023-02-18T18:01:54;11.70;;;5.40;;
47896;SDS011;39629;51.400;5.494;2023-02-18T18:06:56;11.85;;;5.05;;
47896;SDS011;39629;51.400;5.494;2023-02-18T18:11:59;10.32;;;4.60;;
47896;SDS011;39629;51.400;5.494;2023-02-18T18:17:01;9.18;;;4.88;;
47896;SDS011;39629;51.400;5.494;2023-02-18T18:22:02;11.27;;;4.35;;
47896;SDS011;39629;51.400;5.494;2023-02-18T18:27:05;11.82;;;5.28;;
47896;SDS011;39629;51.400;5.494;2023-02-18T18:32:08;11.93;;;5.10;;
47896;SDS011;39629;51.400;5.494;2023-02-18T18:37:10;14.32;;;5.03;;
47896;SDS011;39629;51.400;5.494;2023-02-18T18:42:13;7.70;;;4.55;;
47896;SDS011;39629;51.400;5.494;2023-02-18T18:47:15;12.65;;;5.28;;
47896;SDS011;39629;51.400;5.494;2023-02-18T18:52:16;8.80;;;5.07;;
47896;SDS011;39629;51.400;5.494;2023-02-18T18:57:20;10.32;;;5.13;;
47896;SDS011;39629;51.400;5.494;2023-02-18T19:02:21;13.70;;;5.80;;
47896;SDS011;39629;51.400;5.494;2023-02-18T19:07:23;12.93;;;5.40;;
47896;SDS011;39629;51.400;5.494;2023-02-18T19:12:26;14.07;;;5.88;;
47896;SDS011;39629;51.400;5.494;2023-02-18T19:17:28;15.27;;;6.15;;
47896;SDS011;39629;51.400;5.494;2023-02-18T19:22:29;14.50;;;5.80;;
47896;SDS011;39629;51.400;5.494;2023-02-18T19:27:32;14.18;;;6.50;;
47896;SDS011;39629;51.400;5.494;2023-02-18T19:32:37;13.15;;;6.53;;
47896;SDS011;39629;51.400;5.494;2023-02-18T19:37:39;13.88;;;6.28;;
47896;SDS011;39629;51.400;5.494;2023-02-18T19:42:42;12.10;;;6.60;;
47896;SDS011;39629;51.400;5.494;2023-02-18T19:47:44;16.92;;;8.23;;
47896;SDS011;39629;51.400;5.494;2023-02-18T19:52:46;15.30;;;7.20;;
47896;SDS011;39629;51.400;5.494;2023-02-18T19:57:49;10.73;;;6.40;;
47896;SDS011;39629;51.400;5.494;2023-02-18T20:02:51;14.60;;;7.10;;
47896;SDS011;39629;51.400;5.494;2023-02-18T20:07:53;14.30;;;7.05;;
47896;SDS011;39629;51.400;5.494;2023-02-18T20:12:56;13.68;;;6.78;;
47896;SDS011;39629;51.400;5.494;2023-02-18T20:17:57;14.50;;;7.07;;
47896;SDS011;39629;51.400;5.494;2023-02-18T20:22:59;12.77;;;7.05;;
47896;SDS011;39629;51.400;5.494;2023-02-18T20:28:02;16.45;;;7.45;;
47896;SDS011;39629;51.400;5.494;2023-02-18T20:33:04;16.50;;;7.63;;
47896;SDS011;39629;51.400;5.494;2023-02-18T20:38:05;15.70;;;6.65;;
47896;SDS011;39629;51.400;5.494;2023-02-18T20:43:09;13.27;;;7.07;;
47896;SDS011;39629;51.400;5.494;2023-02-18T20:48:10;16.70;;;6.72;;
47896;SDS011;39629;51.400;5.494;2023-02-18T20:53:13;15.93;;;7.03;;
47896;SDS011;39629;51.400;5.494;2023-02-18T20:58:15;16.77;;;7.63;;
47896;SDS011;39629;51.400;5.494;2023-02-18T21:03:17;16.75;;;7.57;;
47896;SDS011;39629;51.400;5.494;2023-02-18T21:08:19;17.02;;;7.82;;
47896;SDS011;39629;51.400;5.494;2023-02-18T21:13:22;14.75;;;7.75;;
47896;SDS011;39629;51.400;5.494;2023-02-18T21:18:25;15.30;;;7.43;;
47896;SDS011;39629;51.400;5.494;2023-02-18T21:23:26;14.07;;;7.63;;
47896;SDS011;39629;51.400;5.494;2023-02-18T21:28:29;14.65;;;7.95;;
47896;SDS011;39629;51.400;5.494;2023-02-18T21:33:31;16.23;;;8.57;;
47896;SDS011;39629;51.400;5.494;2023-02-18T21:38:33;15.05;;;8.13;;
47896;SDS011;39629;51.400;5.494;2023-02-18T21:43:35;15.98;;;8.32;;
47896;SDS011;39629;51.400;5.494;2023-02-18T21:48:38;12.73;;;7.10;;
47896;SDS011;39629;51.400;5.494;2023-02-18T21:53:57;14.48;;;8.00;;
47896;SDS011;39629;51.400;5.494;2023-02-18T21:59:00;19.80;;;8.10;;
47896;SDS011;39629;51.400;5.494;2023-02-18T22:04:01;16.08;;;7.95;;
47896;SDS011;39629;51.400;5.494;2023-02-18T22:09:03;13.65;;;7.53;;
47896;SDS011;39629;51.400;5.494;2023-02-18T22:14:07;15.63;;;7.68;;
47896;SDS011;39629;51.400;5.494;2023-02-18T22:19:10;14.33;;;7.50;;
47896;SDS011;39629;51.400;5.494;2023-02-18T22:24:13;13.93;;;7.57;;
47896;SDS011;39629;51.400;5.494;2023-02-18T22:29:17;13.07;;;7.18;;
47896;SDS011;39629;51.400;5.494;2023-02-18T22:34:20;13.30;;;7.68;;
47896;SDS011;39629;51.400;5.494;2023-02-18T22:39:22;15.35;;;7.68;;
47896;SDS011;39629;51.400;5.494;2023-02-18T22:44:26;15.55;;;7.57;;
47896;SDS011;39629;51.400;5.494;2023-02-18T22:49:28;16.10;;;7.03;;
47896;SDS011;39629;51.400;5.494;2023-02-18T22:54:30;13.57;;;7.57;;
47896;SDS011;39629;51.400;5.494;2023-02-18T22:59:33;15.82;;;7.72;;
47896;SDS011;39629;51.400;5.494;2023-02-18T23:04:35;16.30;;;9.00;;
47896;SDS011;39629;51.400;5.494;2023-02-18T23:09:39;17.00;;;8.88;;
47896;SDS011;39629;51.400;5.494;2023-02-18T23:14:42;17.40;;;9.02;;
47896;SDS011;39629;51.400;5.494;2023-02-18T23:19:44;15.98;;;8.35;;
47896;SDS011;39629;51.400;5.494;2023-02-18T23:24:46;19.00;;;8.93;;
47896;SDS011;39629;51.400;5.494;2023-02-18T23:29:50;18.45;;;8.95;;
47896;SDS011;39629;51.400;5.494;2023-02-18T23:34:51;17.45;;;8.20;;
47896;SDS011;39629;51.400;5.494;2023-02-18T23:39:53;18.50;;;8.55;;
47896;SDS011;39629;51.400;5.494;2023-02-18T23:44:56;18.75;;;8.50;;
47896;SDS011;39629;51.400;5.494;2023-02-18T23:49:57;17.50;;;8.60;;
47896;SDS011;39629;51.400;5.494;2023-02-18T23:54:59;15.75;;;8.38;;
